createdAt,value
2022-12-20T00:00:44.610Z,3.50
2022-12-20T00:02:48.787Z,3.70
2022-12-20T00:04:51.317Z,3.23
2022-12-20T00:06:52.949Z,3.20
2022-12-20T00:08:56.334Z,3.80
2022-12-20T00:11:01.426Z,3.30
2022-12-20T00:13:03.190Z,3.67
2022-12-20T00:15:05.580Z,3.43
2022-12-20T00:17:07.215Z,3.50
2022-12-20T00:19:10.582Z,3.50
2022-12-20T00:21:14.435Z,3.13
2022-12-20T00:23:23.511Z,3.93
2022-12-20T00:25:25.685Z,3.23
2022-12-20T00:27:27.386Z,3.70
2022-12-20T00:29:31.016Z,3.40
2022-12-20T00:31:33.300Z,3.70
2022-12-20T00:33:37.349Z,3.77
2022-12-20T00:35:43.082Z,3.40
2022-12-20T00:37:44.763Z,3.60
2022-12-20T00:39:46.602Z,3.60
2022-12-20T00:41:48.316Z,3.40
2022-12-20T00:43:50.103Z,3.60
2022-12-20T00:45:52.158Z,3.40
2022-12-20T00:48:02.581Z,3.90
2022-12-20T00:50:04.971Z,3.73
2022-12-20T00:52:08.052Z,3.70
2022-12-20T00:54:09.788Z,3.60
2022-12-20T00:56:14.095Z,3.63
2022-12-20T00:58:15.830Z,3.67
2022-12-20T01:00:17.938Z,3.70
2022-12-20T01:02:20.105Z,3.70
2022-12-20T01:04:23.526Z,3.77
2022-12-20T01:06:26.469Z,3.40
2022-12-20T01:08:30.318Z,4.70
2022-12-20T01:10:34.385Z,4.73
2022-12-20T01:12:36.071Z,3.50
2022-12-20T01:14:38.919Z,3.70
2022-12-20T01:16:43.804Z,3.50
2022-12-20T01:18:50.213Z,3.47
2022-12-20T01:21:01.828Z,3.33
2022-12-20T01:23:03.715Z,3.60
2022-12-20T01:25:06.339Z,3.30
2022-12-20T01:27:07.960Z,3.23
2022-12-20T01:29:09.918Z,2.97
2022-12-20T01:31:14.815Z,2.97
2022-12-20T01:33:16.568Z,3.40
2022-12-20T01:35:18.270Z,3.60
2022-12-20T01:37:19.964Z,3.70
2022-12-20T01:39:21.779Z,3.50
2022-12-20T01:41:24.615Z,3.67
2022-12-20T01:43:47.239Z,3.40
2022-12-20T01:45:52.718Z,3.93
2022-12-20T01:47:55.547Z,3.00
2022-12-20T01:49:59.211Z,3.23
2022-12-20T01:52:35.470Z,3.30
2022-12-20T01:54:49.777Z,3.27
2022-12-20T01:56:57.153Z,3.10
2022-12-20T01:59:00.730Z,3.20
2022-12-20T02:01:02.635Z,3.20
2022-12-20T02:03:09.162Z,3.17
2022-12-20T02:05:11.548Z,3.00
2022-12-20T02:07:20.188Z,3.27
2022-12-20T02:09:23.780Z,3.30
2022-12-20T02:11:39.923Z,3.23
2022-12-20T02:14:07.905Z,4.03
2022-12-20T02:16:12.865Z,4.10
2022-12-20T02:18:43.187Z,4.37
2022-12-20T02:21:25.827Z,3.80
2022-12-20T02:23:49.071Z,3.53
2022-12-20T02:26:17.971Z,2.77
2022-12-20T02:28:46.194Z,3.40
2022-12-20T02:30:54.785Z,3.50
2022-12-20T02:33:02.204Z,2.70
2022-12-20T02:35:07.815Z,3.27
2022-12-20T02:37:12.968Z,2.90
2022-12-20T02:39:17.763Z,2.67
2022-12-20T02:41:40.413Z,2.97
2022-12-20T02:44:04.474Z,2.87
2022-12-20T02:46:07.549Z,3.33
2022-12-20T02:48:11.338Z,3.80
2022-12-20T02:50:17.163Z,4.30
2022-12-20T02:52:22.253Z,4.50
2022-12-20T02:54:26.952Z,4.10
2022-12-20T02:56:48.648Z,3.20
2022-12-20T02:58:55.240Z,3.83
2022-12-20T03:01:04.309Z,3.47
2022-12-20T03:03:25.057Z,3.80
2022-12-20T03:05:28.072Z,3.60
2022-12-20T03:07:29.811Z,3.47
2022-12-20T03:09:34.912Z,3.20
2022-12-20T03:11:36.590Z,3.00
2022-12-20T03:13:40.432Z,2.80
2022-12-20T03:15:44.855Z,2.63
2022-12-20T03:17:46.573Z,3.03
2022-12-20T03:19:48.322Z,2.70
2022-12-20T03:21:52.978Z,2.40
2022-12-20T03:23:54.839Z,2.70
2022-12-20T03:25:56.904Z,2.83
2022-12-20T03:28:09.367Z,2.47
2022-12-20T03:30:12.056Z,3.07
2022-12-20T03:32:13.762Z,2.70
2022-12-20T03:34:21.273Z,2.60
2022-12-20T03:36:24.075Z,2.57
2022-12-20T03:38:33.020Z,2.57
2022-12-20T03:40:34.939Z,2.80
2022-12-20T03:42:37.377Z,2.83
2022-12-20T03:44:39.363Z,2.70
2022-12-20T03:46:41.390Z,2.60
2022-12-20T03:48:43.979Z,2.60
2022-12-20T03:50:52.144Z,2.33
2022-12-20T03:52:56.839Z,2.70
2022-12-20T03:54:58.485Z,2.50
2022-12-20T03:57:07.653Z,2.77
2022-12-20T03:59:09.626Z,2.23
2022-12-20T04:01:23.081Z,2.50
2022-12-20T04:03:25.632Z,3.10
2022-12-20T04:05:31.835Z,2.43
2022-12-20T04:07:35.591Z,2.43
2022-12-20T04:09:37.385Z,2.60
2022-12-20T04:11:43.827Z,2.50
2022-12-20T04:13:51.989Z,2.57
2022-12-20T04:16:00.049Z,2.70
2022-12-20T04:18:05.045Z,2.47
2022-12-20T04:20:19.501Z,2.43
2022-12-20T04:22:26.751Z,2.40
2022-12-20T04:24:35.552Z,2.30
2022-12-20T04:26:49.487Z,2.50
2022-12-20T04:28:52.043Z,2.53
2022-12-20T04:30:53.905Z,2.60
2022-12-20T04:32:59.863Z,2.70
2022-12-20T04:35:03.963Z,2.60
2022-12-20T04:37:10.935Z,2.60
2022-12-20T04:39:20.350Z,2.50
2022-12-20T04:41:50.690Z,2.87
2022-12-20T04:43:54.515Z,2.83
2022-12-20T04:45:58.139Z,2.93
2022-12-20T04:48:28.539Z,2.50
2022-12-20T04:50:25.583Z,2.40
2022-12-20T04:52:51.251Z,2.70
2022-12-20T04:54:54.599Z,2.87
2022-12-20T04:57:02.828Z,2.63
2022-12-20T04:59:04.718Z,2.77
2022-12-20T05:01:10.155Z,2.90
2022-12-20T05:03:23.054Z,2.97
2022-12-20T05:05:25.345Z,2.83
2022-12-20T05:07:30.274Z,2.40
2022-12-20T05:09:32.368Z,2.60
2022-12-20T05:11:34.400Z,2.50
2022-12-20T05:13:38.578Z,2.47
2022-12-20T05:15:42.831Z,2.60
2022-12-20T05:17:45.762Z,2.57
2022-12-20T05:19:47.997Z,2.60
2022-12-20T05:22:09.474Z,2.40
2022-12-20T05:24:32.950Z,2.57
2022-12-20T05:26:52.679Z,2.63
2022-12-20T05:28:54.766Z,2.53
2022-12-20T05:31:00.753Z,2.80
2022-12-20T05:33:07.718Z,2.20
2022-12-20T05:35:09.705Z,2.90
2022-12-20T05:37:12.276Z,2.77
2022-12-20T05:39:19.157Z,2.20
2022-12-20T05:41:22.219Z,2.57
2022-12-20T05:43:26.644Z,3.10
2022-12-20T05:45:29.949Z,3.37
2022-12-20T05:47:39.524Z,4.23
2022-12-20T05:49:45.155Z,3.00
2022-12-20T05:51:46.838Z,3.03
2022-12-20T05:53:58.099Z,2.47
2022-12-20T05:56:23.089Z,2.63
2022-12-20T05:58:26.274Z,2.60
2022-12-20T06:00:32.716Z,2.23
2022-12-20T06:02:35.204Z,2.67
2022-12-20T06:04:38.985Z,2.20
2022-12-20T06:06:49.346Z,2.20
2022-12-20T06:08:53.661Z,2.30
2022-12-20T06:11:05.089Z,2.70
2022-12-20T06:13:13.803Z,2.30
2022-12-20T06:15:15.903Z,2.67
2022-12-20T06:17:18.675Z,2.50
2022-12-20T06:19:21.865Z,2.50
2022-12-20T06:21:28.441Z,2.40
2022-12-20T06:23:30.605Z,2.40
2022-12-20T06:25:43.972Z,2.13
2022-12-20T06:27:46.294Z,2.40
2022-12-20T06:29:54.299Z,2.30
2022-12-20T06:31:59.291Z,2.30
2022-12-20T06:34:03.321Z,2.10
2022-12-20T06:36:09.347Z,2.27
2022-12-20T06:38:12.168Z,2.10
2022-12-20T06:40:14.434Z,2.30
2022-12-20T06:42:16.140Z,2.00
2022-12-20T06:44:19.428Z,1.97
2022-12-20T06:46:21.178Z,2.30
2022-12-20T06:48:23.570Z,2.20
2022-12-20T06:50:25.998Z,2.20
2022-12-20T06:52:27.936Z,2.30
2022-12-20T06:54:30.179Z,2.20
2022-12-20T06:56:39.407Z,2.03
2022-12-20T06:58:46.909Z,2.17
2022-12-20T07:00:49.116Z,2.30
2022-12-20T07:02:50.999Z,2.10
2022-12-20T07:04:55.768Z,1.90
2022-12-20T07:07:00.708Z,2.10
2022-12-20T07:09:03.005Z,2.37
2022-12-20T07:11:06.579Z,2.07
2022-12-20T07:13:09.138Z,2.13
2022-12-20T07:15:10.961Z,2.33
2022-12-20T07:17:12.716Z,2.17
2022-12-20T07:19:16.675Z,2.33
2022-12-20T07:21:19.470Z,2.23
2022-12-20T07:23:23.450Z,2.30
2022-12-20T07:25:25.548Z,2.20
2022-12-20T07:27:27.660Z,5.70
2022-12-20T07:29:31.555Z,2.63
2022-12-20T07:31:33.257Z,2.17
2022-12-20T07:33:35.171Z,2.70
2022-12-20T07:35:36.872Z,2.40
2022-12-20T07:37:38.842Z,2.30
2022-12-20T07:39:42.189Z,2.33
2022-12-20T07:41:46.654Z,2.60
2022-12-20T07:43:51.795Z,2.37
2022-12-20T07:45:57.089Z,2.10
2022-12-20T07:48:03.315Z,2.20
2022-12-20T07:50:09.418Z,2.40
2022-12-20T07:52:12.801Z,2.23
2022-12-20T07:54:19.947Z,2.23
2022-12-20T07:56:22.699Z,2.33
2022-12-20T07:58:27.410Z,4.90
2022-12-20T08:00:29.228Z,2.87
2022-12-20T08:02:48.613Z,2.30
2022-12-20T08:04:50.823Z,2.20
2022-12-20T08:06:59.442Z,2.40
2022-12-20T08:09:04.448Z,2.13
2022-12-20T08:11:10.855Z,2.37
2022-12-20T08:13:12.937Z,2.57
2022-12-20T08:15:15.216Z,2.33
2022-12-20T08:17:16.954Z,2.40
2022-12-20T08:19:18.944Z,2.20
2022-12-20T08:21:20.647Z,2.43
2022-12-20T08:23:25.012Z,2.10
2022-12-20T08:25:39.431Z,2.50
2022-12-20T08:27:43.448Z,2.23
2022-12-20T08:29:45.092Z,2.40
2022-12-20T08:31:50.389Z,2.77
2022-12-20T08:33:55.179Z,2.10
2022-12-20T08:36:02.504Z,1.93
2022-12-20T08:38:04.180Z,2.10
2022-12-20T08:40:07.670Z,2.40
2022-12-20T08:42:13.991Z,2.47
2022-12-20T08:44:15.684Z,2.37
2022-12-20T08:46:17.452Z,1.97
2022-12-20T08:48:19.152Z,2.40
2022-12-20T08:50:22.821Z,2.13
2022-12-20T08:52:24.502Z,2.30
2022-12-20T08:54:26.207Z,2.20
2022-12-20T08:56:30.459Z,2.40
2022-12-20T08:58:32.524Z,2.23
2022-12-20T09:00:34.623Z,2.10
2022-12-20T09:02:38.521Z,2.50
2022-12-20T09:04:44.416Z,2.23
2022-12-20T09:06:49.000Z,2.20
2022-12-20T09:08:51.034Z,2.30
2022-12-20T09:10:53.109Z,2.10
2022-12-20T09:12:54.790Z,2.60
2022-12-20T09:15:01.540Z,2.30
2022-12-20T09:17:03.334Z,2.10
2022-12-20T09:19:06.633Z,2.30
2022-12-20T09:21:12.604Z,2.30
2022-12-20T09:23:16.860Z,2.40
2022-12-20T09:25:18.574Z,2.20
2022-12-20T09:27:20.201Z,2.40
2022-12-20T09:29:28.175Z,2.37
2022-12-20T09:31:33.875Z,2.27
2022-12-20T09:33:36.423Z,2.30
2022-12-20T09:35:47.385Z,2.40
2022-12-20T09:37:49.101Z,2.50
2022-12-20T09:39:51.552Z,2.20
2022-12-20T09:41:53.410Z,2.60
2022-12-20T09:44:02.371Z,2.70
2022-12-20T09:46:04.470Z,2.37
2022-12-20T09:48:29.476Z,2.80
2022-12-20T09:50:49.287Z,2.50
2022-12-20T09:53:17.955Z,2.57
2022-12-20T09:55:32.832Z,3.10
2022-12-20T09:58:04.914Z,2.80
2022-12-20T10:00:19.048Z,3.80
2022-12-20T10:04:47.591Z,3.40
2022-12-20T10:07:10.763Z,2.83
2022-12-20T10:09:50.623Z,2.30
2022-12-20T10:12:24.517Z,2.70
2022-12-20T10:14:50.380Z,2.23
2022-12-20T10:17:11.286Z,4.10
2022-12-20T10:19:35.657Z,2.37
2022-12-20T10:21:47.074Z,2.70
2022-12-20T10:23:55.579Z,2.70
2022-12-20T10:25:58.049Z,4.73
2022-12-20T10:28:14.039Z,2.70
2022-12-20T10:30:21.123Z,3.07
2022-12-20T10:32:24.256Z,3.10
2022-12-20T10:34:28.870Z,3.17
2022-12-20T10:36:37.219Z,2.23
2022-12-20T10:38:49.188Z,3.30
2022-12-20T10:43:25.023Z,2.20
2022-12-20T10:45:42.879Z,2.27
2022-12-20T10:47:46.348Z,2.20
2022-12-20T10:49:48.092Z,1.87
2022-12-20T10:52:13.884Z,2.10
2022-12-20T10:54:29.007Z,2.30
2022-12-20T10:56:32.750Z,2.00
2022-12-20T10:58:36.553Z,2.10
2022-12-20T11:00:38.860Z,2.20
2022-12-20T11:02:44.027Z,2.00
2022-12-20T11:05:15.520Z,2.20
2022-12-20T11:07:29.858Z,2.20
2022-12-20T11:09:34.737Z,2.00
2022-12-20T11:11:36.521Z,2.17
2022-12-20T11:13:38.746Z,1.83
2022-12-20T11:15:49.652Z,2.10
2022-12-20T11:18:25.904Z,1.90
2022-12-20T11:20:42.727Z,2.33
2022-12-20T11:22:51.431Z,2.40
2022-12-20T11:25:09.308Z,2.50
2022-12-20T11:27:31.987Z,2.20
2022-12-20T11:29:55.972Z,2.23
2022-12-20T11:32:10.988Z,2.13
2022-12-20T11:34:50.421Z,2.27
2022-12-20T11:37:27.647Z,2.20
2022-12-20T11:39:57.857Z,2.10
2022-12-20T11:42:14.765Z,1.87
2022-12-20T11:44:28.006Z,2.30
2022-12-20T11:47:02.103Z,1.90
2022-12-20T11:49:18.811Z,2.60
2022-12-20T11:51:28.953Z,2.30
2022-12-20T11:53:42.128Z,2.17
2022-12-20T11:55:50.587Z,2.30
2022-12-20T11:58:18.543Z,2.33
2022-12-20T12:00:25.288Z,2.10
2022-12-20T12:02:38.471Z,1.93
2022-12-20T12:04:44.968Z,2.30
2022-12-20T12:07:10.595Z,2.60
2022-12-20T12:09:22.551Z,3.60
2022-12-20T12:13:55.085Z,4.43
2022-12-20T12:16:03.662Z,4.17
2022-12-20T12:18:19.598Z,4.00
2022-12-20T12:20:47.393Z,5.80
2022-12-20T12:22:53.187Z,8.07
2022-12-20T12:24:59.990Z,4.47
2022-12-20T12:27:02.490Z,5.90
2022-12-20T12:29:10.138Z,7.23
2022-12-20T12:31:18.454Z,8.87
2022-12-20T12:33:26.309Z,5.00
2022-12-20T12:35:50.961Z,5.80
2022-12-20T12:38:30.027Z,4.43
2022-12-20T12:40:55.700Z,5.77
2022-12-20T12:43:09.869Z,3.57
2022-12-20T12:45:28.885Z,2.70
2022-12-20T12:47:54.762Z,2.30
2022-12-20T12:49:58.403Z,2.50
2022-12-20T12:52:04.616Z,2.20
2022-12-20T12:54:09.567Z,2.63
2022-12-20T12:56:47.382Z,2.27
2022-12-20T12:59:07.902Z,2.40
2022-12-20T13:01:11.775Z,2.13
2022-12-20T13:03:35.950Z,1.87
2022-12-20T13:05:37.666Z,2.27
2022-12-20T13:07:44.749Z,2.20
2022-12-20T13:09:49.104Z,2.80
2022-12-20T13:12:00.966Z,2.23
2022-12-20T13:14:31.031Z,2.30
2022-12-20T13:19:04.894Z,2.10
2022-12-20T13:21:35.929Z,2.30
2022-12-20T13:23:37.647Z,2.27
2022-12-20T13:25:48.714Z,2.63
2022-12-20T13:27:50.594Z,2.17
2022-12-20T13:30:06.790Z,2.03
2022-12-20T13:32:46.858Z,1.97
2022-12-20T13:34:55.727Z,2.20
2022-12-20T13:36:59.709Z,1.90
2022-12-20T13:39:21.643Z,2.10
2022-12-20T13:41:37.253Z,1.87
2022-12-20T13:43:44.598Z,2.17
2022-12-20T13:45:49.693Z,2.20
2022-12-20T13:47:58.025Z,2.40
2022-12-20T13:50:02.134Z,2.30
2022-12-20T13:52:25.056Z,2.40
2022-12-20T13:54:27.787Z,2.20
2022-12-20T13:56:50.153Z,2.10
2022-12-20T13:58:52.497Z,2.40
2022-12-20T14:01:05.549Z,2.50
2022-12-20T14:03:33.259Z,2.47
2022-12-20T14:05:38.263Z,2.17
2022-12-20T14:07:40.875Z,2.40
2022-12-20T14:09:45.713Z,2.20
2022-12-20T14:11:47.684Z,2.27
2022-12-20T14:14:03.298Z,2.60
2022-12-20T14:16:16.020Z,2.20
2022-12-20T14:18:22.631Z,2.40
2022-12-20T14:20:37.259Z,2.07
2022-12-20T14:22:43.581Z,2.30
2022-12-20T14:24:45.982Z,2.00
2022-12-20T14:26:54.223Z,2.20
2022-12-20T14:29:01.346Z,2.00
2022-12-20T14:31:09.470Z,2.53
2022-12-20T14:33:26.288Z,2.43
2022-12-20T14:35:28.408Z,2.57
2022-12-20T14:37:39.109Z,2.13
2022-12-20T14:40:15.861Z,2.80
2022-12-20T14:42:20.439Z,2.50
2022-12-20T14:44:23.935Z,2.37
2022-12-20T14:46:25.682Z,2.40
2022-12-20T14:48:27.455Z,2.30
2022-12-20T14:50:37.923Z,2.20
2022-12-20T14:52:42.180Z,2.43
2022-12-20T14:55:20.399Z,2.20
2022-12-20T14:57:29.216Z,2.80
2022-12-20T14:59:33.708Z,2.53
2022-12-20T15:01:41.757Z,2.53
2022-12-20T15:04:00.462Z,2.53
2022-12-20T15:06:05.202Z,2.83
2022-12-20T15:08:33.402Z,2.47
2022-12-20T15:10:35.151Z,3.13
2022-12-20T15:12:41.937Z,2.40
2022-12-20T15:14:44.184Z,2.40
2022-12-20T15:16:49.601Z,2.60
2022-12-20T15:19:01.927Z,2.60
2022-12-20T15:21:17.115Z,2.33
2022-12-20T15:23:21.359Z,3.03
2022-12-20T15:25:25.254Z,2.63
2022-12-20T15:27:29.648Z,2.80
2022-12-20T15:29:31.339Z,3.20
2022-12-20T15:31:38.369Z,2.47
2022-12-20T15:33:41.529Z,2.60
2022-12-20T15:35:44.018Z,2.40
2022-12-20T15:37:45.662Z,2.27
2022-12-20T15:39:47.452Z,2.80
2022-12-20T15:41:50.186Z,2.77
2022-12-20T15:43:56.404Z,2.63
2022-12-20T15:45:58.271Z,2.90
2022-12-20T15:47:59.877Z,2.63
2022-12-20T15:50:01.504Z,3.17
2022-12-20T15:52:03.328Z,3.10
2022-12-20T15:54:13.923Z,2.97
2022-12-20T15:56:21.812Z,3.57
2022-12-20T15:58:25.011Z,2.73
2022-12-20T16:00:26.799Z,2.70
2022-12-20T16:02:29.910Z,3.33
2022-12-20T16:04:31.751Z,3.00
2022-12-20T16:06:33.486Z,3.07
2022-12-20T16:08:38.083Z,2.77
2022-12-20T16:10:40.063Z,2.53
2022-12-20T16:12:42.607Z,2.43
2022-12-20T16:14:46.842Z,2.77
2022-12-20T16:16:49.997Z,2.83
2022-12-20T16:18:53.637Z,3.40
2022-12-20T16:20:55.950Z,3.00
2022-12-20T16:22:59.680Z,2.83
2022-12-20T16:25:01.657Z,2.93
2022-12-20T16:27:03.380Z,3.73
2022-12-20T16:29:05.123Z,3.30
2022-12-20T16:31:31.078Z,3.90
2022-12-20T16:33:32.790Z,3.17
2022-12-20T16:35:37.233Z,3.27
2022-12-20T16:37:39.380Z,3.30
2022-12-20T16:39:41.927Z,3.00
2022-12-20T16:41:44.732Z,2.87
2022-12-20T16:43:48.603Z,3.37
2022-12-20T16:45:50.268Z,3.37
2022-12-20T16:47:53.038Z,3.30
2022-12-20T16:49:56.984Z,3.23
2022-12-20T16:51:58.718Z,3.00
2022-12-20T16:54:21.267Z,3.07
2022-12-20T16:56:24.245Z,3.63
2022-12-20T16:58:52.329Z,3.20
2022-12-20T17:00:48.212Z,3.07
2022-12-20T17:02:51.500Z,3.17
2022-12-20T17:04:53.402Z,3.60
2022-12-20T17:06:57.642Z,2.80
2022-12-20T17:11:36.355Z,2.90
2022-12-20T17:13:38.061Z,3.20
2022-12-20T17:15:40.385Z,3.10
2022-12-20T17:17:42.002Z,3.30
2022-12-20T17:19:43.736Z,3.13
2022-12-20T17:24:19.862Z,3.47
2022-12-20T17:26:24.655Z,4.40
2022-12-20T17:28:26.870Z,3.30
2022-12-20T17:30:30.736Z,2.93
2022-12-20T17:32:37.048Z,3.10
2022-12-20T17:34:39.916Z,3.03
2022-12-20T17:36:41.649Z,2.57
2022-12-20T17:38:45.384Z,3.17
2022-12-20T17:40:52.250Z,2.73
2022-12-20T17:42:54.561Z,3.07
2022-12-20T17:44:56.263Z,3.00
2022-12-20T17:46:59.233Z,3.07
2022-12-20T17:49:00.910Z,3.30
2022-12-20T17:51:02.826Z,3.57
2022-12-20T17:53:05.289Z,3.10
2022-12-20T17:55:07.890Z,2.87
2022-12-20T17:57:14.789Z,2.90
2022-12-20T17:59:17.420Z,3.20
2022-12-20T18:01:30.880Z,3.17
2022-12-20T18:04:02.164Z,3.50
2022-12-20T18:06:00.862Z,3.60
2022-12-20T18:08:05.939Z,3.53
2022-12-20T18:10:08.590Z,3.27
2022-12-20T18:12:10.994Z,3.07
2022-12-20T18:14:13.263Z,2.93
2022-12-20T18:16:17.535Z,3.10
2022-12-20T18:18:19.270Z,3.47
2022-12-20T18:20:21.061Z,3.10
2022-12-20T18:22:22.775Z,3.20
2022-12-20T18:24:24.453Z,3.83
2022-12-20T18:26:30.043Z,4.13
2022-12-20T18:28:33.987Z,4.63
2022-12-20T18:30:37.850Z,3.27
2022-12-20T18:32:41.903Z,3.17
2022-12-20T18:34:44.034Z,3.00
2022-12-20T18:36:45.833Z,4.30
2022-12-20T18:38:52.549Z,4.20
2022-12-20T18:40:54.273Z,3.53
2022-12-20T18:42:59.608Z,3.10
2022-12-20T18:45:07.539Z,3.07
2022-12-20T18:47:09.215Z,3.10
2022-12-20T18:49:13.012Z,3.30
2022-12-20T18:51:17.185Z,3.53
2022-12-20T18:53:18.896Z,3.10
2022-12-20T18:55:20.642Z,3.30
2022-12-20T18:57:22.388Z,3.40
2022-12-20T18:59:24.305Z,3.50
2022-12-20T19:01:28.871Z,3.60
2022-12-20T19:03:30.841Z,3.37
2022-12-20T19:05:33.296Z,3.63
2022-12-20T19:07:35.159Z,4.17
2022-12-20T19:09:36.979Z,3.50
2022-12-20T19:11:39.311Z,5.00
2022-12-20T19:13:43.305Z,4.00
2022-12-20T19:15:47.179Z,3.90
2022-12-20T19:17:48.822Z,3.23
2022-12-20T19:19:52.866Z,3.93
2022-12-20T19:21:54.491Z,4.00
2022-12-20T19:23:59.136Z,4.00
2022-12-20T19:26:06.764Z,4.00
2022-12-20T19:28:10.422Z,4.23
2022-12-20T19:30:12.258Z,4.37
2022-12-20T19:32:13.904Z,4.20
2022-12-20T19:34:15.649Z,4.40
2022-12-20T19:36:22.149Z,4.70
2022-12-20T19:38:28.121Z,4.10
2022-12-20T19:40:30.710Z,4.00
2022-12-20T19:42:32.342Z,4.17
2022-12-20T19:44:34.088Z,4.43
2022-12-20T19:46:39.676Z,4.23
2022-12-20T19:48:43.009Z,4.00
2022-12-20T19:50:45.612Z,4.47
2022-12-20T19:52:49.488Z,4.20
2022-12-20T19:54:52.365Z,4.70
2022-12-20T19:56:55.320Z,4.60
2022-12-20T19:59:00.193Z,4.00
2022-12-20T20:01:01.988Z,4.27
2022-12-20T20:03:04.090Z,4.17
2022-12-20T20:05:14.707Z,4.43
2022-12-20T20:07:17.499Z,4.70
2022-12-20T20:09:24.638Z,4.00
2022-12-20T20:11:29.229Z,4.13
2022-12-20T20:13:31.611Z,3.73
2022-12-20T20:15:33.401Z,4.20
2022-12-20T20:17:35.765Z,3.93
2022-12-20T20:19:37.996Z,3.97
2022-12-20T20:21:39.774Z,4.00
2022-12-20T20:23:43.860Z,3.87
2022-12-20T20:25:54.280Z,3.87
2022-12-20T20:27:56.237Z,3.47
2022-12-20T20:29:58.279Z,3.90
2022-12-20T20:32:00.493Z,4.27
2022-12-20T20:34:02.634Z,5.10
2022-12-20T20:36:05.308Z,4.13
2022-12-20T20:38:08.204Z,4.30
2022-12-20T20:40:13.046Z,3.87
2022-12-20T20:42:18.507Z,4.40
2022-12-20T20:44:24.696Z,4.10
2022-12-20T20:46:27.531Z,4.17
2022-12-20T20:48:31.851Z,4.00
2022-12-20T20:50:34.876Z,4.73
2022-12-20T20:52:39.249Z,3.83
2022-12-20T20:54:40.917Z,3.97
2022-12-20T20:56:42.961Z,3.80
2022-12-20T20:58:50.185Z,4.60
2022-12-20T21:00:55.992Z,4.27
2022-12-20T21:02:59.552Z,4.43
2022-12-20T21:05:59.214Z,4.00
2022-12-20T21:07:23.145Z,4.10
2022-12-20T21:09:24.859Z,4.03
2022-12-20T21:11:27.795Z,3.70
2022-12-20T21:13:32.848Z,3.60
2022-12-20T21:15:35.273Z,3.63
2022-12-20T21:17:40.310Z,3.30
2022-12-20T21:19:42.069Z,3.13
2022-12-20T21:21:46.233Z,3.20
2022-12-20T21:23:48.419Z,3.00
2022-12-20T21:25:57.344Z,3.23
2022-12-20T21:27:59.321Z,3.17
2022-12-20T21:30:01.036Z,3.50
2022-12-20T21:32:03.382Z,2.90
2022-12-20T21:34:05.110Z,2.77
2022-12-20T21:36:10.913Z,3.30
2022-12-20T21:38:14.075Z,3.00
2022-12-20T21:40:15.991Z,3.43
2022-12-20T21:42:19.961Z,2.97
2022-12-20T21:44:24.214Z,3.13
2022-12-20T21:46:27.658Z,2.83
2022-12-20T21:48:30.203Z,2.67
2022-12-20T21:50:34.042Z,3.80
2022-12-20T21:52:35.751Z,2.80
2022-12-20T21:54:40.308Z,3.23
2022-12-20T21:56:41.935Z,4.73
2022-12-20T21:58:44.634Z,3.23
2022-12-20T22:00:52.529Z,2.67
2022-12-20T22:02:57.258Z,2.90
2022-12-20T22:04:59.186Z,2.80
2022-12-20T22:07:03.546Z,2.93
2022-12-20T22:09:09.981Z,2.97
2022-12-20T22:11:14.210Z,2.93
2022-12-20T22:13:15.908Z,2.73
2022-12-20T22:15:21.958Z,2.50
2022-12-20T22:17:23.630Z,2.80
2022-12-20T22:19:25.417Z,2.80
2022-12-20T22:21:29.404Z,2.70
2022-12-20T22:23:31.390Z,2.63
2022-12-20T22:25:36.416Z,2.90
2022-12-20T22:27:38.108Z,2.60
2022-12-20T22:29:39.875Z,2.90
2022-12-20T22:31:42.209Z,2.63
2022-12-20T22:33:45.792Z,2.80
2022-12-20T22:35:47.464Z,2.53
2022-12-20T22:37:49.179Z,2.67
2022-12-20T22:39:50.931Z,2.53
2022-12-20T22:41:52.614Z,2.60
2022-12-20T22:43:54.648Z,2.87
2022-12-20T22:45:57.327Z,2.50
2022-12-20T22:48:00.155Z,2.80
2022-12-20T22:50:01.917Z,2.47
2022-12-20T22:52:07.697Z,2.33
2022-12-20T22:54:10.484Z,2.40
2022-12-20T22:56:12.181Z,2.50
2022-12-20T22:58:13.908Z,2.60
2022-12-20T23:00:15.943Z,2.40
2022-12-20T23:02:17.800Z,2.33
2022-12-20T23:04:19.692Z,2.37
2022-12-20T23:06:23.949Z,2.53
2022-12-20T23:08:27.842Z,2.37
2022-12-20T23:10:51.070Z,2.23
2022-12-20T23:13:11.368Z,2.30
2022-12-20T23:15:32.045Z,2.40
2022-12-20T23:17:34.919Z,2.30
2022-12-20T23:19:55.679Z,2.30
2022-12-20T23:22:16.094Z,2.40
2022-12-20T23:24:17.847Z,2.20
2022-12-20T23:26:19.578Z,2.30
2022-12-20T23:28:21.399Z,2.13
2022-12-20T23:30:24.417Z,2.50
2022-12-20T23:32:26.393Z,2.80
2022-12-20T23:34:35.767Z,2.30
2022-12-20T23:36:37.742Z,3.40
2022-12-20T23:38:39.533Z,2.30
2022-12-20T23:40:41.381Z,1.90
2022-12-20T23:42:43.698Z,2.03
2022-12-20T23:44:45.525Z,2.03
2022-12-20T23:46:47.324Z,2.07
2022-12-20T23:48:53.577Z,2.00
2022-12-20T23:50:56.741Z,2.00
2022-12-20T23:53:00.803Z,1.93
2022-12-20T23:55:04.854Z,2.00
2022-12-20T23:57:08.739Z,1.90
2022-12-20T23:59:10.772Z,2.00
